createdAt,value
2018-12-14T00:00:22.212Z,16.00
2018-12-14T00:01:22.202Z,16.00
2018-12-14T00:02:22.191Z,16.00
2018-12-14T00:03:22.184Z,16.00
2018-12-14T00:04:22.219Z,16.00
2018-12-14T00:05:22.183Z,16.00
2018-12-14T00:06:22.744Z,16.00
2018-12-14T00:07:22.142Z,16.00
2018-12-14T00:08:22.135Z,16.00
2018-12-14T00:09:22.124Z,16.00
2018-12-14T00:10:22.223Z,16.00
2018-12-14T00:11:22.416Z,16.00
2018-12-14T00:12:22.089Z,16.00
2018-12-14T00:13:22.715Z,16.00
2018-12-14T00:14:23.134Z,16.00
2018-12-14T00:15:24.825Z,16.00
2018-12-14T00:16:22.091Z,16.00
2018-12-14T00:17:22.042Z,16.00
2018-12-14T00:18:22.428Z,16.00
2018-12-14T00:19:22.062Z,16.00
2018-12-14T00:20:22.011Z,16.00
2018-12-14T00:21:22.000Z,16.00
2018-12-14T00:22:22.067Z,16.00
2018-12-14T00:23:22.005Z,16.00
2018-12-14T00:24:22.527Z,16.00
2018-12-14T00:25:22.446Z,16.00
2018-12-14T00:26:21.951Z,16.00
2018-12-14T00:27:21.940Z,16.00
2018-12-14T00:28:23.453Z,16.00
2018-12-14T00:29:21.921Z,16.00
2018-12-14T00:30:21.908Z,16.00
2018-12-14T00:31:21.902Z,16.00
2018-12-14T00:32:21.905Z,16.00
2018-12-14T00:33:21.881Z,16.00
2018-12-14T00:34:21.999Z,16.00
2018-12-14T00:35:21.859Z,16.00
2018-12-14T00:36:21.950Z,16.00
2018-12-14T00:37:21.840Z,16.00
2018-12-14T00:38:22.257Z,16.00
2018-12-14T00:39:21.820Z,16.00
2018-12-14T00:40:22.131Z,16.00
2018-12-14T00:41:21.805Z,16.00
2018-12-14T00:42:21.791Z,16.00
2018-12-14T00:43:21.779Z,16.00
2018-12-14T00:44:21.774Z,16.00
2018-12-14T00:45:22.088Z,16.00
2018-12-14T00:46:21.947Z,16.00
2018-12-14T00:47:21.754Z,16.00
2018-12-14T00:48:22.728Z,16.00
2018-12-14T00:49:21.720Z,16.00
2018-12-14T00:50:21.709Z,16.00
2018-12-14T00:51:21.697Z,16.00
2018-12-14T00:52:22.136Z,16.00
2018-12-14T00:53:21.677Z,16.00
2018-12-14T00:54:21.667Z,16.00
2018-12-14T00:55:21.659Z,16.00
2018-12-14T00:56:21.646Z,16.00
2018-12-14T00:57:21.635Z,16.00
2018-12-14T00:58:21.743Z,16.00
2018-12-14T00:59:21.942Z,16.00
2018-12-14T01:00:21.606Z,16.00
2018-12-14T01:01:21.596Z,16.00
2018-12-14T01:02:21.586Z,16.00
2018-12-14T01:03:21.580Z,16.00
2018-12-14T01:04:21.839Z,16.00
2018-12-14T01:05:21.562Z,16.00
2018-12-14T01:06:22.491Z,16.00
2018-12-14T01:07:21.554Z,16.00
2018-12-14T01:08:21.545Z,16.00
2018-12-14T01:09:21.517Z,16.00
2018-12-14T01:10:21.639Z,16.00
2018-12-14T01:11:21.509Z,16.00
2018-12-14T01:12:21.491Z,16.00
2018-12-14T01:13:24.693Z,16.00
2018-12-14T01:14:21.511Z,16.00
2018-12-14T01:15:21.465Z,16.00
2018-12-14T01:16:21.564Z,16.00
2018-12-14T01:17:21.435Z,16.00
2018-12-14T01:18:21.428Z,16.00
2018-12-14T01:19:21.613Z,16.00
2018-12-14T01:20:24.650Z,16.00
2018-12-14T01:21:21.395Z,16.00
2018-12-14T01:22:21.553Z,16.00
2018-12-14T01:23:21.404Z,16.00
2018-12-14T01:24:21.380Z,16.00
2018-12-14T01:25:21.474Z,16.00
2018-12-14T01:26:22.183Z,16.00
2018-12-14T01:27:22.857Z,16.00
2018-12-14T01:28:21.868Z,16.00
2018-12-14T01:29:21.312Z,16.00
2018-12-14T01:30:21.302Z,16.00
2018-12-14T01:31:21.291Z,16.00
2018-12-14T01:32:21.281Z,16.00
2018-12-14T01:33:21.272Z,16.00
2018-12-14T01:34:21.861Z,16.00
2018-12-14T01:35:21.254Z,16.00
2018-12-14T01:36:21.345Z,16.00
2018-12-14T01:37:21.527Z,16.00
2018-12-14T01:38:21.259Z,16.00
2018-12-14T01:39:21.214Z,16.00
2018-12-14T01:40:21.460Z,16.00
2018-12-14T01:41:22.669Z,16.00
2018-12-14T01:42:21.238Z,16.00
2018-12-14T01:43:21.205Z,16.00
2018-12-14T01:44:21.274Z,16.00
2018-12-14T01:45:21.152Z,16.00
2018-12-14T01:46:21.253Z,16.00
2018-12-14T01:47:21.130Z,16.00
2018-12-14T01:48:21.684Z,16.00
2018-12-14T01:49:21.287Z,16.00
2018-12-14T01:50:21.699Z,16.00
2018-12-14T01:51:21.098Z,16.00
2018-12-14T01:52:21.421Z,16.00
2018-12-14T01:53:21.086Z,16.00
2018-12-14T01:54:21.081Z,16.00
2018-12-14T01:55:23.708Z,16.00
2018-12-14T01:56:21.051Z,16.00
2018-12-14T01:57:21.392Z,16.00
2018-12-14T01:58:21.285Z,16.00
2018-12-14T01:59:21.048Z,16.00
2018-12-14T02:00:21.277Z,16.00
2018-12-14T02:01:20.997Z,16.00
2018-12-14T02:02:21.706Z,16.00
2018-12-14T02:03:20.969Z,16.00
2018-12-14T02:04:21.077Z,16.00
2018-12-14T02:05:20.949Z,16.00
2018-12-14T02:06:20.938Z,16.00
2018-12-14T02:07:20.931Z,16.00
2018-12-14T02:08:20.919Z,16.00
2018-12-14T02:09:20.907Z,16.00
2018-12-14T02:10:21.012Z,16.00
2018-12-14T02:11:20.890Z,16.00
2018-12-14T02:12:21.164Z,16.00
2018-12-14T02:13:20.867Z,16.00
2018-12-14T02:14:20.858Z,16.00
2018-12-14T02:15:20.846Z,16.00
2018-12-14T02:16:21.012Z,16.00
2018-12-14T02:17:20.831Z,16.00
2018-12-14T02:18:20.829Z,16.00
2018-12-14T02:19:21.101Z,16.00
2018-12-14T02:20:20.799Z,16.00
2018-12-14T02:21:20.787Z,16.00
2018-12-14T02:22:20.885Z,16.00
2018-12-14T02:23:20.762Z,16.00
2018-12-14T02:24:20.755Z,16.00
2018-12-14T02:25:20.752Z,16.00
2018-12-14T02:26:21.022Z,16.00
2018-12-14T02:27:20.730Z,16.00
2018-12-14T02:28:20.838Z,16.00
2018-12-14T02:29:20.712Z,16.00
2018-12-14T02:30:20.794Z,16.00
2018-12-14T02:31:20.822Z,16.00
2018-12-14T02:32:20.715Z,16.00
2018-12-14T02:33:20.675Z,16.00
2018-12-14T02:34:20.934Z,16.00
2018-12-14T02:35:20.644Z,16.00
2018-12-14T02:36:20.880Z,16.00
2018-12-14T02:37:20.691Z,16.00
2018-12-14T02:38:20.727Z,16.00
2018-12-14T02:39:20.889Z,16.00
2018-12-14T02:40:20.771Z,16.00
2018-12-14T02:41:20.582Z,16.00
2018-12-14T02:42:20.574Z,16.00
2018-12-14T02:43:20.568Z,16.00
2018-12-14T02:44:20.601Z,16.00
2018-12-14T02:45:20.540Z,16.00
2018-12-14T02:46:21.239Z,16.00
2018-12-14T02:47:20.525Z,16.00
2018-12-14T02:48:20.513Z,16.00
2018-12-14T02:49:20.501Z,16.00
2018-12-14T02:50:20.505Z,16.00
2018-12-14T02:51:20.481Z,16.00
2018-12-14T02:52:20.626Z,16.00
2018-12-14T02:53:20.761Z,16.00
2018-12-14T02:54:20.462Z,16.00
2018-12-14T02:55:20.455Z,16.00
2018-12-14T02:56:20.431Z,16.00
2018-12-14T02:57:20.423Z,16.00
2018-12-14T02:58:20.624Z,16.00
2018-12-14T02:59:20.435Z,16.00
2018-12-14T03:01:43.721Z,16.00
2018-12-14T03:02:42.106Z,16.00
2018-12-14T03:03:42.104Z,16.00
2018-12-14T03:04:42.101Z,16.00
2018-12-14T03:05:42.075Z,16.00
2018-12-14T03:06:42.086Z,16.00
2018-12-14T03:07:42.375Z,16.00
2018-12-14T03:08:42.856Z,16.00
2018-12-14T03:09:42.034Z,16.00
2018-12-14T03:10:42.026Z,16.00
2018-12-14T03:11:42.800Z,16.00
2018-12-14T03:12:42.009Z,16.00
2018-12-14T03:13:43.071Z,16.00
2018-12-14T03:14:43.765Z,16.00
2018-12-14T03:15:41.972Z,16.00
2018-12-14T03:16:41.963Z,16.00
2018-12-14T03:17:42.801Z,16.00
2018-12-14T03:18:41.939Z,16.00
2018-12-14T03:19:42.422Z,16.00
2018-12-14T03:20:41.918Z,16.00
2018-12-14T03:21:43.409Z,16.00
2018-12-14T03:22:42.760Z,16.00
2018-12-14T03:23:41.900Z,16.00
2018-12-14T03:24:41.885Z,16.00
2018-12-14T03:25:41.987Z,16.00
2018-12-14T03:26:41.857Z,16.00
2018-12-14T03:27:41.845Z,16.00
2018-12-14T03:28:42.125Z,16.00
2018-12-14T03:29:41.832Z,16.00
2018-12-14T03:30:42.932Z,16.00
2018-12-14T03:31:41.804Z,16.00
2018-12-14T03:32:41.802Z,16.00
2018-12-14T03:33:41.782Z,16.00
2018-12-14T03:34:41.773Z,16.00
2018-12-14T03:35:42.762Z,16.00
2018-12-14T03:36:41.908Z,16.00
2018-12-14T03:37:41.741Z,16.00
2018-12-14T03:38:41.738Z,16.00
2018-12-14T03:39:41.722Z,16.00
2018-12-14T03:40:41.709Z,16.00
2018-12-14T03:41:41.700Z,16.00
2018-12-14T03:42:42.472Z,16.00
2018-12-14T03:43:41.681Z,16.00
2018-12-14T03:44:41.683Z,16.00
2018-12-14T03:45:41.657Z,16.00
2018-12-14T03:46:41.647Z,16.00
2018-12-14T03:47:41.638Z,16.00
2018-12-14T03:48:41.744Z,16.00
2018-12-14T03:49:41.898Z,16.00
2018-12-14T03:50:41.605Z,16.00
2018-12-14T03:51:41.606Z,16.00
2018-12-14T03:52:41.596Z,16.00
2018-12-14T03:53:41.600Z,16.00
2018-12-14T03:54:41.713Z,16.00
2018-12-14T03:55:41.554Z,16.00
2018-12-14T03:56:41.845Z,16.00
2018-12-14T03:57:41.541Z,16.00
2018-12-14T03:58:41.540Z,16.00
2018-12-14T03:59:41.510Z,16.00
2018-12-14T04:00:41.628Z,24.00
2018-12-14T04:01:41.489Z,24.00
2018-12-14T04:02:41.478Z,24.00
2018-12-14T04:03:41.744Z,24.00
2018-12-14T04:04:41.472Z,24.00
2018-12-14T04:05:41.449Z,24.00
2018-12-14T04:06:41.711Z,24.00
2018-12-14T04:07:41.447Z,24.00
2018-12-14T04:08:41.416Z,24.00
2018-12-14T04:09:41.407Z,24.00
2018-12-14T04:10:41.721Z,24.00
2018-12-14T04:11:41.384Z,24.00
2018-12-14T04:12:42.194Z,24.00
2018-12-14T04:13:41.363Z,24.00
2018-12-14T04:14:41.362Z,24.00
2018-12-14T04:15:41.371Z,24.00
2018-12-14T04:16:41.332Z,24.00
2018-12-14T04:17:41.606Z,24.00
2018-12-14T04:18:41.523Z,24.00
2018-12-14T04:19:41.301Z,20.00
2018-12-14T04:20:41.298Z,24.00
2018-12-14T04:21:41.322Z,24.00
2018-12-14T04:22:41.272Z,24.00
2018-12-14T04:23:41.359Z,24.00
2018-12-14T04:24:41.669Z,20.00
2018-12-14T04:25:41.238Z,24.00
2018-12-14T04:26:41.302Z,24.00
2018-12-14T04:27:41.267Z,24.00
2018-12-14T04:28:41.215Z,24.00
2018-12-14T04:29:41.197Z,24.00
2018-12-14T04:30:41.356Z,24.00
2018-12-14T04:31:41.178Z,24.00
2018-12-14T04:32:41.186Z,24.00
2018-12-14T04:33:41.168Z,24.00
2018-12-14T04:34:41.184Z,24.00
2018-12-14T04:35:41.140Z,24.00
2018-12-14T04:36:41.256Z,24.00
2018-12-14T04:37:41.416Z,24.00
2018-12-14T04:38:41.113Z,24.00
2018-12-14T04:39:41.095Z,24.00
2018-12-14T04:40:41.088Z,24.00
2018-12-14T04:41:41.072Z,24.00
2018-12-14T04:42:48.670Z,24.00
2018-12-14T04:43:42.059Z,24.00
2018-12-14T04:44:41.038Z,24.00
2018-12-14T04:45:41.027Z,24.00
2018-12-14T04:46:41.022Z,24.00
2018-12-14T04:47:41.041Z,24.00
2018-12-14T04:48:41.170Z,24.00
2018-12-14T04:49:41.006Z,24.00
2018-12-14T04:50:42.302Z,24.00
2018-12-14T04:51:40.965Z,24.00
2018-12-14T04:52:40.965Z,24.00
2018-12-14T04:53:41.098Z,24.00
2018-12-14T04:54:41.051Z,24.00
2018-12-14T04:55:40.930Z,24.00
2018-12-14T04:56:40.925Z,24.00
2018-12-14T04:57:41.269Z,24.00
2018-12-14T04:58:40.901Z,24.00
2018-12-14T04:59:40.952Z,24.00
2018-12-14T05:00:40.995Z,24.00
2018-12-14T05:01:41.046Z,24.00
2018-12-14T05:02:40.848Z,24.00
2018-12-14T05:03:40.945Z,24.00
2018-12-14T05:04:41.223Z,24.00
2018-12-14T05:05:40.819Z,24.00
2018-12-14T05:06:41.252Z,24.00
2018-12-14T05:07:40.842Z,24.00
2018-12-14T05:08:40.789Z,24.00
2018-12-14T05:09:40.819Z,24.00
2018-12-14T05:10:40.771Z,24.00
2018-12-14T05:11:41.223Z,24.00
2018-12-14T05:12:40.913Z,24.00
2018-12-14T05:13:40.734Z,24.00
2018-12-14T05:14:40.800Z,24.00
2018-12-14T05:15:40.713Z,24.00
2018-12-14T05:16:40.713Z,24.00
2018-12-14T05:17:40.692Z,24.00
2018-12-14T05:18:40.800Z,24.00
2018-12-14T05:19:40.704Z,24.00
2018-12-14T05:20:40.663Z,24.00
2018-12-14T05:21:40.651Z,24.00
2018-12-14T05:22:40.642Z,24.00
2018-12-14T05:23:40.629Z,24.00
2018-12-14T05:24:41.294Z,24.00
2018-12-14T05:25:40.610Z,24.00
2018-12-14T05:26:40.600Z,24.00
2018-12-14T05:27:40.591Z,24.00
2018-12-14T05:28:40.578Z,24.00
2018-12-14T05:29:40.565Z,20.00
2018-12-14T05:30:40.673Z,24.00
2018-12-14T05:31:40.545Z,24.00
2018-12-14T05:32:40.533Z,24.00
2018-12-14T05:33:40.523Z,24.00
2018-12-14T05:34:40.518Z,24.00
2018-12-14T05:35:40.505Z,24.00
2018-12-14T05:36:40.994Z,24.00
2018-12-14T05:37:40.482Z,24.00
2018-12-14T05:38:40.470Z,24.00
2018-12-14T05:39:40.460Z,24.00
2018-12-14T05:40:40.453Z,24.00
2018-12-14T05:41:40.440Z,24.00
2018-12-14T05:42:40.596Z,24.00
2018-12-14T05:43:40.418Z,24.00
2018-12-14T05:44:40.409Z,24.00
2018-12-14T05:45:40.401Z,20.00
2018-12-14T05:46:40.412Z,24.00
2018-12-14T05:47:40.380Z,24.00
2018-12-14T05:48:40.483Z,24.00
2018-12-14T05:49:40.356Z,24.00
2018-12-14T05:50:40.347Z,24.00
2018-12-14T05:51:40.334Z,24.00
2018-12-14T05:52:40.328Z,24.00
2018-12-14T05:53:40.313Z,24.00
2018-12-14T05:54:40.711Z,24.00
2018-12-14T05:55:40.298Z,24.00
2018-12-14T05:56:40.283Z,24.00
2018-12-14T05:57:40.280Z,24.00
2018-12-14T05:58:40.259Z,24.00
2018-12-14T05:59:40.254Z,24.00
2018-12-14T06:00:40.398Z,24.00
2018-12-14T06:01:40.236Z,24.00
2018-12-14T06:02:40.219Z,24.00
2018-12-14T06:03:40.208Z,24.00
2018-12-14T06:04:40.198Z,24.00
2018-12-14T06:05:40.188Z,24.00
2018-12-14T06:06:40.310Z,24.00
2018-12-14T06:07:40.644Z,24.00
2018-12-14T06:08:40.156Z,24.00
2018-12-14T06:09:40.144Z,24.00
2018-12-14T06:10:40.143Z,24.00
2018-12-14T06:11:40.123Z,24.00
2018-12-14T06:12:40.392Z,24.00
2018-12-14T06:13:40.141Z,24.00
2018-12-14T06:14:40.094Z,24.00
2018-12-14T06:15:40.081Z,24.00
2018-12-14T06:16:40.072Z,24.00
2018-12-14T06:17:40.061Z,24.00
2018-12-14T06:18:40.207Z,24.00
2018-12-14T06:19:40.923Z,24.00
2018-12-14T06:20:40.055Z,24.00
2018-12-14T06:21:40.024Z,24.00
2018-12-14T06:22:40.182Z,24.00
2018-12-14T06:23:40.143Z,24.00
2018-12-14T06:24:40.332Z,24.00
2018-12-14T06:25:40.388Z,24.00
2018-12-14T06:26:39.977Z,20.00
2018-12-14T06:27:41.007Z,20.00
2018-12-14T06:28:40.093Z,20.00
2018-12-14T06:29:39.940Z,20.00
2018-12-14T06:30:40.059Z,20.00
2018-12-14T06:31:40.064Z,20.00
2018-12-14T06:32:40.329Z,20.00
2018-12-14T06:33:39.996Z,20.00
2018-12-14T06:34:39.881Z,20.00
2018-12-14T06:35:39.873Z,20.00
2018-12-14T06:36:39.987Z,20.00
2018-12-14T06:37:39.851Z,20.00
2018-12-14T06:38:39.838Z,20.00
2018-12-14T06:39:41.761Z,20.00
2018-12-14T06:40:39.821Z,24.00
2018-12-14T06:41:39.808Z,24.00
2018-12-14T06:42:40.052Z,24.00
2018-12-14T06:43:40.278Z,24.00
2018-12-14T06:44:39.780Z,24.00
2018-12-14T06:45:39.767Z,24.00
2018-12-14T06:46:39.756Z,24.00
2018-12-14T06:47:39.746Z,24.00
2018-12-14T06:48:40.723Z,24.00
2018-12-14T06:49:39.725Z,24.00
2018-12-14T06:50:39.716Z,24.00
2018-12-14T06:51:39.706Z,28.00
2018-12-14T06:52:39.694Z,24.00
2018-12-14T06:53:39.686Z,28.00
2018-12-14T06:54:40.117Z,28.00
2018-12-14T06:55:39.661Z,28.00
2018-12-14T06:56:40.719Z,32.00
2018-12-14T06:57:39.641Z,32.00
2018-12-14T06:58:39.632Z,32.00
2018-12-14T06:59:39.619Z,32.00
2018-12-14T07:00:39.722Z,32.00
2018-12-14T07:01:39.598Z,24.00
2018-12-14T07:02:39.588Z,28.00
2018-12-14T07:03:39.579Z,28.00
2018-12-14T07:04:39.574Z,36.00
2018-12-14T07:05:39.557Z,36.00
2018-12-14T07:06:39.668Z,40.00
2018-12-14T07:07:39.542Z,44.00
2018-12-14T07:08:39.531Z,48.00
2018-12-14T07:09:39.874Z,52.00
2018-12-14T07:10:39.505Z,56.00
2018-12-14T07:11:39.494Z,60.00
2018-12-14T07:12:40.805Z,68.00
2018-12-14T07:13:39.478Z,72.00
2018-12-14T07:14:39.463Z,80.00
2018-12-14T07:15:39.452Z,88.00
2018-12-14T07:16:39.445Z,100.00
2018-12-14T07:17:39.499Z,104.00
2018-12-14T07:18:39.539Z,112.00
2018-12-14T07:19:39.416Z,124.00
2018-12-14T07:20:39.401Z,132.00
2018-12-14T07:21:40.472Z,144.00
2018-12-14T07:22:39.382Z,156.00
2018-12-14T07:23:39.368Z,168.00
2018-12-14T07:24:39.490Z,176.00
2018-12-14T07:25:39.347Z,192.00
2018-12-14T07:26:39.337Z,196.00
2018-12-14T07:27:39.327Z,204.00
2018-12-14T07:28:39.717Z,220.00
2018-12-14T07:29:39.305Z,232.00
2018-12-14T07:30:39.448Z,248.00
2018-12-14T07:31:39.284Z,260.00
2018-12-14T07:32:39.277Z,280.00
2018-12-14T07:33:39.262Z,292.00
2018-12-14T07:34:39.253Z,312.00
2018-12-14T07:35:42.128Z,332.00
2018-12-14T07:36:39.303Z,344.00
2018-12-14T07:37:39.223Z,360.00
2018-12-14T07:38:39.210Z,380.00
2018-12-14T07:39:39.199Z,400.00
2018-12-14T07:40:39.194Z,416.00
2018-12-14T07:41:39.190Z,436.00
2018-12-14T07:42:39.250Z,456.00
2018-12-14T07:43:39.166Z,476.00
2018-12-14T07:44:39.207Z,492.00
2018-12-14T07:45:39.145Z,512.00
2018-12-14T07:46:39.147Z,532.00
2018-12-14T07:47:39.171Z,552.00
2018-12-14T07:48:39.530Z,572.00
2018-12-14T07:49:39.098Z,596.00
2018-12-14T07:50:39.084Z,616.00
2018-12-14T07:51:39.075Z,636.00
2018-12-14T07:52:39.063Z,660.00
2018-12-14T07:53:39.063Z,688.00
2018-12-14T07:54:39.114Z,712.00
2018-12-14T07:55:39.517Z,736.00
2018-12-14T07:56:39.024Z,768.00
2018-12-14T07:57:39.011Z,796.00
2018-12-14T07:58:39.000Z,820.00
2018-12-14T07:59:38.995Z,848.00
2018-12-14T08:00:39.065Z,876.00
2018-12-14T08:01:39.299Z,904.00
2018-12-14T08:02:38.960Z,932.00
2018-12-14T08:03:38.948Z,960.00
2018-12-14T08:04:39.973Z,984.00
2018-12-14T08:05:38.934Z,1008.00
2018-12-14T08:06:39.206Z,1036.00
2018-12-14T08:07:38.925Z,1072.00
2018-12-14T08:08:41.369Z,1096.00
2018-12-14T08:09:38.916Z,1124.00
2018-12-14T08:10:38.955Z,1148.00
2018-12-14T08:11:38.912Z,1168.00
2018-12-14T08:12:39.109Z,1192.00
2018-12-14T08:13:38.855Z,1220.00
2018-12-14T08:14:38.832Z,1248.00
2018-12-14T08:15:39.125Z,1272.00
2018-12-14T08:16:38.949Z,1300.00
2018-12-14T08:17:38.859Z,1324.00
2018-12-14T08:18:38.867Z,1340.00
2018-12-14T08:19:38.780Z,1364.00
2018-12-14T08:20:38.771Z,1388.00
2018-12-14T08:21:38.792Z,1416.00
2018-12-14T08:22:39.314Z,1432.00
2018-12-14T08:23:38.916Z,1460.00
2018-12-14T08:24:39.338Z,1480.00
2018-12-14T08:25:38.900Z,1508.00
2018-12-14T08:26:38.807Z,1524.00
2018-12-14T08:27:38.792Z,1544.00
2018-12-14T08:28:38.794Z,1572.00
2018-12-14T08:29:39.086Z,1612.00
2018-12-14T08:30:39.131Z,1640.00
2018-12-14T08:31:38.762Z,1664.00
2018-12-14T08:32:38.815Z,1688.00
2018-12-14T08:33:38.636Z,1708.00
2018-12-14T08:34:38.625Z,1720.00
2018-12-14T08:35:38.616Z,1740.00
2018-12-14T08:36:39.025Z,1760.00
2018-12-14T08:37:38.601Z,1772.00
2018-12-14T08:38:38.583Z,1792.00
2018-12-14T08:39:38.572Z,1828.00
2018-12-14T08:40:38.583Z,1860.00
2018-12-14T08:41:38.559Z,1888.00
2018-12-14T08:42:38.708Z,1940.00
2018-12-14T08:43:41.543Z,1944.00
2018-12-14T08:44:38.523Z,1976.00
2018-12-14T08:45:38.512Z,2008.00
2018-12-14T08:46:38.501Z,2040.00
2018-12-14T08:47:38.492Z,2072.00
2018-12-14T08:48:38.546Z,2108.00
2018-12-14T08:49:38.471Z,2140.00
2018-12-14T08:50:38.458Z,2164.00
2018-12-14T08:51:38.453Z,2180.00
2018-12-14T08:52:38.438Z,2208.00
2018-12-14T08:53:38.436Z,2252.00
2018-12-14T08:54:38.489Z,2276.00
2018-12-14T08:55:38.441Z,2280.00
2018-12-14T08:56:38.397Z,2308.00
2018-12-14T08:57:38.548Z,2356.00
2018-12-14T08:58:38.446Z,2384.00
2018-12-14T08:59:38.404Z,2424.00
2018-12-14T09:00:38.755Z,2444.00
2018-12-14T09:01:38.493Z,2464.00
2018-12-14T09:02:38.335Z,2528.00
2018-12-14T09:03:38.327Z,2556.00
2018-12-14T09:04:38.314Z,2584.00
2018-12-14T09:05:38.346Z,2632.00
2018-12-14T09:06:38.364Z,2668.00
2018-12-14T09:07:38.286Z,2692.00
2018-12-14T09:08:38.485Z,2728.00
2018-12-14T09:09:38.467Z,2776.00
2018-12-14T09:10:38.343Z,2816.00
2018-12-14T09:11:38.285Z,2860.00
2018-12-14T09:12:38.551Z,2876.00
2018-12-14T09:13:38.553Z,2892.00
2018-12-14T09:14:38.275Z,2948.00
2018-12-14T09:15:38.819Z,2992.00
2018-12-14T09:16:38.265Z,3036.00
2018-12-14T09:17:38.185Z,3044.00
2018-12-14T09:18:38.512Z,3060.00
2018-12-14T09:19:38.328Z,3080.00
2018-12-14T09:20:38.545Z,3036.00
2018-12-14T09:21:38.205Z,3048.00
2018-12-14T09:22:38.140Z,2900.00
2018-12-14T09:23:38.125Z,3192.00
2018-12-14T09:24:38.182Z,3232.00
2018-12-14T09:25:38.930Z,3308.00
2018-12-14T09:26:38.149Z,3416.00
2018-12-14T09:27:38.563Z,3384.00
2018-12-14T09:28:38.094Z,3436.00
2018-12-14T09:29:38.060Z,3480.00
2018-12-14T09:30:42.679Z,3476.00
2018-12-14T09:31:38.095Z,3368.00
2018-12-14T09:32:38.028Z,3616.00
2018-12-14T09:33:38.017Z,3756.00
2018-12-14T09:34:38.965Z,3640.00
2018-12-14T09:35:38.005Z,3556.00
2018-12-14T09:36:38.319Z,3592.00
2018-12-14T09:37:37.977Z,3696.00
2018-12-14T09:38:38.110Z,3676.00
2018-12-14T09:39:37.960Z,3676.00
2018-12-14T09:40:37.946Z,3688.00
2018-12-14T09:41:38.391Z,3632.00
2018-12-14T09:42:38.006Z,3692.00
2018-12-14T09:43:38.122Z,3528.00
2018-12-14T09:44:38.224Z,3756.00
2018-12-14T09:45:37.897Z,3420.00
2018-12-14T09:46:37.998Z,3952.00
2018-12-14T09:47:37.878Z,3520.00
2018-12-14T09:48:38.183Z,3624.00
2018-12-14T09:49:37.977Z,4048.00
2018-12-14T09:50:38.283Z,4248.00
2018-12-14T09:51:38.127Z,4376.00
2018-12-14T09:52:39.848Z,4148.00
2018-12-14T09:53:38.094Z,4608.00
2018-12-14T09:54:38.670Z,4628.00
2018-12-14T09:55:37.946Z,4960.00
2018-12-14T09:56:38.705Z,4544.00
2018-12-14T09:57:38.271Z,4408.00
2018-12-14T09:58:38.204Z,4476.00
2018-12-14T09:59:37.860Z,4612.00
2018-12-14T10:00:38.146Z,4912.00
2018-12-14T10:01:37.869Z,5232.00
2018-12-14T10:02:37.777Z,4980.00
2018-12-14T10:03:37.748Z,5020.00
2018-12-14T10:04:37.788Z,4880.00
2018-12-14T10:05:37.698Z,4928.00
2018-12-14T10:06:37.718Z,4728.00
2018-12-14T10:07:37.828Z,4900.00
2018-12-14T10:08:37.657Z,5048.00
2018-12-14T10:09:38.046Z,5316.00
2018-12-14T10:10:37.780Z,5484.00
2018-12-14T10:11:37.641Z,5988.00
2018-12-14T10:12:37.861Z,5424.00
2018-12-14T10:13:37.629Z,5208.00
2018-12-14T10:14:37.748Z,5232.00
2018-12-14T10:15:37.702Z,5552.00
2018-12-14T10:16:37.580Z,5396.00
2018-12-14T10:17:37.827Z,5456.00
2018-12-14T10:18:37.803Z,5364.00
2018-12-14T10:19:37.644Z,5312.00
2018-12-14T10:20:37.628Z,5408.00
2018-12-14T10:21:37.634Z,5320.00
2018-12-14T10:22:41.483Z,5228.00
2018-12-14T10:23:37.575Z,5448.00
2018-12-14T10:24:37.879Z,5376.00
2018-12-14T10:25:37.985Z,5532.00
2018-12-14T10:26:37.611Z,5352.00
2018-12-14T10:27:37.514Z,5180.00
2018-12-14T10:28:37.509Z,5148.00
2018-12-14T10:29:37.604Z,5136.00
2018-12-14T10:30:38.129Z,5364.00
2018-12-14T10:31:37.656Z,5324.00
2018-12-14T10:32:37.403Z,5292.00
2018-12-14T10:33:37.392Z,5336.00
2018-12-14T10:34:37.427Z,5396.00
2018-12-14T10:35:37.381Z,5428.00
2018-12-14T10:36:37.801Z,5328.00
2018-12-14T10:37:37.810Z,5564.00
2018-12-14T10:38:37.491Z,5632.00
2018-12-14T10:39:37.396Z,5608.00
2018-12-14T10:40:38.540Z,5544.00
2018-12-14T10:41:37.433Z,5616.00
2018-12-14T10:42:37.589Z,5588.00
2018-12-14T10:43:37.363Z,5660.00
2018-12-14T10:44:37.726Z,5732.00
2018-12-14T10:45:37.266Z,6020.00
2018-12-14T10:46:37.492Z,5744.00
2018-12-14T10:47:38.142Z,5732.00
2018-12-14T10:48:37.507Z,5804.00
2018-12-14T10:49:37.395Z,5676.00
2018-12-14T10:50:39.667Z,5644.00
2018-12-14T10:51:38.454Z,5660.00
2018-12-14T10:52:37.508Z,5728.00
2018-12-14T10:53:37.290Z,5852.00
2018-12-14T10:54:37.324Z,5880.00
2018-12-14T10:55:37.519Z,5840.00
2018-12-14T10:56:37.176Z,5888.00
2018-12-14T10:57:37.647Z,5932.00
2018-12-14T10:58:37.288Z,5952.00
2018-12-14T10:59:37.198Z,6108.00
2018-12-14T11:00:38.009Z,5944.00
2018-12-14T11:01:37.220Z,5932.00
2018-12-14T11:02:37.280Z,6152.00
2018-12-14T11:03:37.225Z,6060.00
2018-12-14T11:04:37.953Z,6044.00
2018-12-14T11:05:37.224Z,6268.00
2018-12-14T11:06:37.365Z,6328.00
2018-12-14T11:07:37.073Z,6292.00
2018-12-14T11:08:37.277Z,6244.00
2018-12-14T11:09:37.143Z,6336.00
2018-12-14T11:10:37.387Z,6460.00
2018-12-14T11:11:37.105Z,6388.00
2018-12-14T11:12:37.306Z,6188.00
2018-12-14T11:13:37.114Z,6240.00
2018-12-14T11:14:36.984Z,6344.00
2018-12-14T11:15:37.021Z,6268.00
2018-12-14T11:16:37.048Z,6528.00
2018-12-14T11:17:36.956Z,6640.00
2018-12-14T11:18:37.139Z,6492.00
2018-12-14T11:19:36.902Z,6176.00
2018-12-14T11:20:36.890Z,6272.00
2018-12-14T11:21:36.877Z,6336.00
2018-12-14T11:22:37.314Z,6320.00
2018-12-14T11:23:36.896Z,6316.00
2018-12-14T11:24:37.127Z,6284.00
2018-12-14T11:25:36.955Z,6376.00
2018-12-14T11:26:37.006Z,6544.00
2018-12-14T11:27:36.879Z,6804.00
2018-12-14T11:28:36.925Z,6644.00
2018-12-14T11:29:36.790Z,6664.00
2018-12-14T11:30:37.650Z,6604.00
2018-12-14T11:31:36.787Z,6652.00
2018-12-14T11:32:36.821Z,6760.00
2018-12-14T11:33:37.347Z,7368.00
2018-12-14T11:34:37.262Z,13544.00
2018-12-14T11:35:37.662Z,43680.00
2018-12-14T11:36:37.070Z,58112.00
2018-12-14T11:37:36.857Z,58080.00
2018-12-14T11:38:36.915Z,67360.00
2018-12-14T11:39:37.259Z,59584.00
2018-12-14T11:40:36.772Z,66304.00
2018-12-14T11:41:36.716Z,63520.00
2018-12-14T11:42:36.926Z,62560.00
2018-12-14T11:43:36.791Z,63520.00
2018-12-14T11:44:37.307Z,63040.00
2018-12-14T11:45:36.755Z,61952.00
2018-12-14T11:46:36.714Z,55104.00
2018-12-14T11:47:37.253Z,63712.00
2018-12-14T11:48:37.709Z,61408.00
2018-12-14T11:49:36.593Z,65184.00
2018-12-14T11:50:36.866Z,63808.00
2018-12-14T11:51:36.592Z,62592.00
2018-12-14T11:52:36.692Z,63808.00
2018-12-14T11:53:36.592Z,62272.00
2018-12-14T11:54:36.996Z,61920.00
2018-12-14T11:55:36.601Z,62784.00
2018-12-14T11:56:36.683Z,63200.00
2018-12-14T11:57:36.496Z,62048.00
2018-12-14T11:58:36.734Z,62560.00
2018-12-14T11:59:36.535Z,61664.00
2018-12-14T12:00:36.753Z,60128.00
2018-12-14T12:01:36.598Z,62720.00
2018-12-14T12:02:42.895Z,64128.00
2018-12-14T12:03:42.803Z,62208.00
2018-12-14T12:04:37.514Z,61376.00
2018-12-14T12:05:36.738Z,9292.00
2018-12-14T12:06:37.763Z,57504.00
2018-12-14T12:07:37.659Z,8108.00
2018-12-14T12:08:36.446Z,60288.00
2018-12-14T12:09:37.165Z,45440.00
2018-12-14T12:10:36.366Z,57664.00
2018-12-14T12:11:36.347Z,59968.00
2018-12-14T12:12:37.829Z,56704.00
2018-12-14T12:13:36.435Z,59392.00
2018-12-14T12:16:02.279Z,58400.00
2018-12-14T12:17:02.394Z,54912.00
2018-12-14T12:18:03.648Z,61408.00
2018-12-14T12:21:09.914Z,6768.00
2018-12-14T12:22:09.548Z,6852.00
2018-12-14T12:23:09.665Z,5552.00
2018-12-14T12:24:09.632Z,6208.00
2018-12-14T12:25:09.534Z,5756.00
2018-12-14T12:26:09.802Z,6048.00
2018-12-14T12:27:09.720Z,5960.00
2018-12-14T12:28:09.542Z,5820.00
2018-12-14T12:29:10.922Z,6072.00
2018-12-14T12:30:09.771Z,6892.00
2018-12-14T12:31:09.496Z,6000.00
2018-12-14T12:32:09.663Z,5772.00
2018-12-14T12:33:09.609Z,4904.00
2018-12-14T12:34:09.444Z,5180.00
2018-12-14T12:35:09.977Z,5564.00
2018-12-14T12:36:09.826Z,5140.00
2018-12-14T12:37:09.546Z,4572.00